createdAt,value
2019-03-30T00:02:18.628Z,15.60
2019-03-30T00:04:47.684Z,15.50
2019-03-30T00:07:16.955Z,16.27
2019-03-30T00:09:46.089Z,17.27
2019-03-30T00:12:15.151Z,18.37
2019-03-30T00:14:44.206Z,17.67
2019-03-30T00:17:15.906Z,18.40
2019-03-30T00:19:45.187Z,17.37
2019-03-30T00:22:14.391Z,17.60
2019-03-30T00:24:43.451Z,17.43
2019-03-30T00:27:12.467Z,16.77
2019-03-30T00:29:41.513Z,17.67
2019-03-30T00:32:10.757Z,17.53
2019-03-30T00:34:40.049Z,17.97
2019-03-30T00:37:09.085Z,17.43
2019-03-30T00:39:38.281Z,18.47
2019-03-30T00:42:07.707Z,19.43
2019-03-30T00:44:36.746Z,18.13
2019-03-30T00:47:05.975Z,17.57
2019-03-30T00:49:48.142Z,17.03
2019-03-30T00:52:06.067Z,17.40
2019-03-30T00:54:35.248Z,17.97
2019-03-30T00:57:04.938Z,17.37
2019-03-30T00:59:34.246Z,17.80
2019-03-30T01:02:03.302Z,17.47
2019-03-30T01:04:32.644Z,16.77
2019-03-30T01:07:01.702Z,18.87
2019-03-30T01:09:30.712Z,18.20
2019-03-30T01:11:59.982Z,18.50
2019-03-30T01:14:29.018Z,18.03
2019-03-30T01:16:58.426Z,18.20
2019-03-30T01:19:27.614Z,17.00
2019-03-30T01:21:56.758Z,18.43
2019-03-30T01:24:25.987Z,18.17
2019-03-30T01:26:55.074Z,19.10
2019-03-30T01:29:24.845Z,19.43
2019-03-30T01:31:53.911Z,18.10
2019-03-30T01:34:23.063Z,17.20
2019-03-30T01:36:52.643Z,18.00
2019-03-30T01:39:21.655Z,19.00
2019-03-30T01:41:50.693Z,18.67
2019-03-30T01:44:19.682Z,18.50
2019-03-30T01:46:48.981Z,18.60
2019-03-30T01:49:18.100Z,19.67
2019-03-30T01:51:47.190Z,18.07
2019-03-30T01:54:16.278Z,18.10
2019-03-30T01:56:45.287Z,19.23
2019-03-30T01:59:14.500Z,19.47
2019-03-30T02:01:43.595Z,17.90
2019-03-30T02:04:13.712Z,17.97
2019-03-30T02:06:42.736Z,18.70
2019-03-30T02:09:12.654Z,18.62
2019-03-30T02:11:41.654Z,16.53
2019-03-30T02:14:10.739Z,17.43
2019-03-30T02:16:39.754Z,17.00
2019-03-30T02:19:09.231Z,17.90
2019-03-30T02:21:38.385Z,17.27
2019-03-30T02:24:07.586Z,17.70
2019-03-30T02:26:38.297Z,17.77
2019-03-30T02:29:07.389Z,17.87
2019-03-30T02:31:36.479Z,17.07
2019-03-30T02:34:05.674Z,16.73
2019-03-30T02:36:34.946Z,17.37
2019-03-30T02:39:05.103Z,17.00
2019-03-30T02:41:34.289Z,17.73
2019-03-30T02:44:03.434Z,16.83
2019-03-30T02:46:32.631Z,17.13
2019-03-30T02:49:02.112Z,17.33
2019-03-30T02:51:31.155Z,16.50
2019-03-30T02:54:00.219Z,17.07
2019-03-30T02:56:29.584Z,16.97
2019-03-30T02:58:58.947Z,15.40
2019-03-30T03:01:28.579Z,15.50
2019-03-30T03:03:57.663Z,15.57
2019-03-30T03:06:26.754Z,15.97
2019-03-30T03:08:55.968Z,15.53
2019-03-30T03:11:26.587Z,15.33
2019-03-30T03:13:55.632Z,15.23
2019-03-30T03:16:27.289Z,14.17
2019-03-30T03:18:55.622Z,15.27
2019-03-30T03:21:25.230Z,14.80
2019-03-30T03:23:54.386Z,14.77
2019-03-30T03:26:23.440Z,15.00
2019-03-30T03:28:52.484Z,14.00
2019-03-30T03:31:21.518Z,15.50
2019-03-30T03:33:51.127Z,14.27
2019-03-30T03:36:20.270Z,15.43
2019-03-30T03:38:49.291Z,15.30
2019-03-30T03:41:18.472Z,14.97
2019-03-30T03:43:47.527Z,14.77
2019-03-30T03:46:16.621Z,15.77
2019-03-30T03:48:45.744Z,15.30
2019-03-30T03:51:25.867Z,14.97
2019-03-30T03:53:47.441Z,15.90
2019-03-30T03:56:16.462Z,15.90
2019-03-30T03:58:46.048Z,16.03
2019-03-30T04:01:15.681Z,15.67
2019-03-30T04:03:46.184Z,16.47
2019-03-30T04:06:16.886Z,17.07
2019-03-30T04:09:04.883Z,15.93
2019-03-30T04:11:35.706Z,16.40
2019-03-30T04:14:04.742Z,15.87
2019-03-30T04:16:33.976Z,15.27
2019-03-30T04:19:03.336Z,15.97
2019-03-30T04:21:43.888Z,16.57
2019-03-30T04:24:03.135Z,16.07
2019-03-30T04:26:32.143Z,15.37
2019-03-30T04:29:01.335Z,16.30
2019-03-30T04:31:30.545Z,15.63
2019-03-30T04:33:59.584Z,14.60
2019-03-30T04:36:28.607Z,14.37
2019-03-30T04:38:57.654Z,15.20
2019-03-30T04:41:26.702Z,13.50
2019-03-30T04:43:55.739Z,14.70
2019-03-30T04:46:24.771Z,13.73
2019-03-30T04:48:53.835Z,14.50
2019-03-30T04:51:22.968Z,14.20
2019-03-30T04:53:52.050Z,13.77
2019-03-30T04:56:21.138Z,12.63
2019-03-30T04:58:50.318Z,12.67
2019-03-30T05:01:19.444Z,13.50
2019-03-30T05:03:48.545Z,13.77
2019-03-30T05:06:17.701Z,12.67
2019-03-30T05:08:46.959Z,13.40
2019-03-30T05:11:15.986Z,13.27
2019-03-30T05:13:45.195Z,13.00
2019-03-30T05:16:14.666Z,12.23
2019-03-30T05:18:43.733Z,13.13
2019-03-30T05:21:12.787Z,13.00
2019-03-30T05:23:41.866Z,13.20
2019-03-30T05:26:10.869Z,12.83
2019-03-30T05:28:39.954Z,12.50
2019-03-30T05:31:08.970Z,12.93
2019-03-30T05:33:38.036Z,13.13
2019-03-30T05:36:07.474Z,12.57
2019-03-30T05:38:36.566Z,11.47
2019-03-30T05:41:05.629Z,12.17
2019-03-30T05:43:34.753Z,12.20
2019-03-30T05:46:03.933Z,12.33
2019-03-30T05:48:33.182Z,12.03
2019-03-30T05:51:02.254Z,12.00
2019-03-30T05:53:31.387Z,12.73
2019-03-30T05:56:00.453Z,11.80
2019-03-30T05:58:29.598Z,12.47
2019-03-30T06:00:59.178Z,12.13
2019-03-30T06:03:28.244Z,11.23
2019-03-30T06:05:57.349Z,11.47
2019-03-30T06:08:26.511Z,11.77
2019-03-30T06:10:55.724Z,11.67
2019-03-30T06:13:24.841Z,11.87
2019-03-30T06:15:53.952Z,11.63
2019-03-30T06:18:22.996Z,11.13
2019-03-30T06:20:52.042Z,10.90
2019-03-30T06:23:21.124Z,10.90
2019-03-30T06:25:50.167Z,11.60
2019-03-30T06:28:19.218Z,10.37
2019-03-30T06:30:48.366Z,10.73
2019-03-30T06:33:17.383Z,10.90
2019-03-30T06:35:46.459Z,11.10
2019-03-30T06:38:16.022Z,10.63
2019-03-30T06:40:45.164Z,10.33
2019-03-30T06:43:14.314Z,10.77
2019-03-30T06:45:43.447Z,10.43
2019-03-30T06:48:12.523Z,9.77
2019-03-30T06:50:41.679Z,9.97
2019-03-30T06:53:10.783Z,9.40
2019-03-30T06:55:39.905Z,10.27
2019-03-30T06:58:09.047Z,9.30
2019-03-30T07:00:38.087Z,9.90
2019-03-30T07:03:08.501Z,9.87
2019-03-30T07:05:40.863Z,10.47
2019-03-30T07:08:12.054Z,10.23
2019-03-30T07:10:42.047Z,9.37
2019-03-30T07:13:11.088Z,10.10
2019-03-30T07:15:45.057Z,10.27
2019-03-30T07:18:14.454Z,10.40
2019-03-30T07:20:43.539Z,9.77
2019-03-30T07:23:13.118Z,9.57
2019-03-30T07:25:42.321Z,10.07
2019-03-30T07:28:11.433Z,9.50
2019-03-30T07:30:40.456Z,9.70
2019-03-30T07:33:09.579Z,9.53
2019-03-30T07:35:38.651Z,9.73
2019-03-30T07:38:07.866Z,10.23
2019-03-30T07:40:36.892Z,8.90
2019-03-30T07:43:24.754Z,10.10
2019-03-30T07:45:53.814Z,9.60
2019-03-30T07:48:23.098Z,10.20
2019-03-30T07:50:52.222Z,10.60
2019-03-30T07:53:26.768Z,9.57
2019-03-30T07:55:52.217Z,9.60
2019-03-30T07:58:21.428Z,9.47
2019-03-30T08:00:50.492Z,9.80
2019-03-30T08:03:19.915Z,10.50
2019-03-30T08:05:48.986Z,9.87
2019-03-30T08:08:18.049Z,10.10
2019-03-30T08:10:47.220Z,9.40
2019-03-30T08:13:16.321Z,10.03
2019-03-30T08:15:47.168Z,10.20
2019-03-30T08:21:26.570Z,10.20
2019-03-30T08:23:55.752Z,9.40
2019-03-30T08:26:24.887Z,10.70
2019-03-30T08:28:54.189Z,10.33
2019-03-30T08:31:23.832Z,10.53
2019-03-30T08:33:53.001Z,10.63
2019-03-30T08:36:22.108Z,9.40
2019-03-30T08:38:51.196Z,9.83
2019-03-30T08:41:20.450Z,10.50
2019-03-30T08:43:49.586Z,9.87
2019-03-30T08:46:19.027Z,10.00
2019-03-30T08:48:48.654Z,11.00
2019-03-30T08:51:20.689Z,10.50
2019-03-30T08:53:54.431Z,9.77
2019-03-30T08:56:20.123Z,10.53
2019-03-30T08:58:49.531Z,9.93
2019-03-30T09:01:18.792Z,11.00
2019-03-30T09:03:47.915Z,10.90
2019-03-30T09:06:17.095Z,11.13
2019-03-30T09:08:46.220Z,10.70
2019-03-30T09:11:15.490Z,11.10
2019-03-30T09:13:44.642Z,10.47
2019-03-30T09:16:13.903Z,11.10
2019-03-30T09:18:43.290Z,11.20
2019-03-30T09:21:13.474Z,10.50
2019-03-30T09:23:42.772Z,11.37
2019-03-30T09:26:12.176Z,11.00
2019-03-30T09:28:41.246Z,10.63
2019-03-30T09:31:10.356Z,11.40
2019-03-30T09:33:40.095Z,11.20
2019-03-30T09:36:09.336Z,10.47
2019-03-30T09:38:38.919Z,10.47
2019-03-30T09:41:08.445Z,11.13
2019-03-30T09:43:37.859Z,11.03
2019-03-30T09:46:07.377Z,10.80
2019-03-30T09:48:36.610Z,10.80
2019-03-30T09:51:06.000Z,11.53
2019-03-30T09:53:35.291Z,11.53
2019-03-30T09:56:04.601Z,11.77
2019-03-30T09:58:33.870Z,11.10
2019-03-30T10:01:03.016Z,11.70
2019-03-30T10:03:32.535Z,11.63
2019-03-30T10:06:01.824Z,10.73
2019-03-30T10:08:31.233Z,11.40
2019-03-30T10:11:00.570Z,11.30
2019-03-30T10:13:29.663Z,11.30
2019-03-30T10:15:59.131Z,11.10
2019-03-30T10:18:28.375Z,11.70
2019-03-30T10:20:57.607Z,10.77
2019-03-30T10:23:26.777Z,11.23
2019-03-30T10:25:56.021Z,11.93
2019-03-30T10:28:25.290Z,10.60
2019-03-30T10:30:54.390Z,11.40
2019-03-30T10:33:23.499Z,8.57
2019-03-30T10:35:53.186Z,7.17
2019-03-30T10:38:22.410Z,7.77
2019-03-30T10:40:51.504Z,8.80
2019-03-30T10:43:20.870Z,9.17
2019-03-30T10:45:49.949Z,9.87
2019-03-30T10:48:19.270Z,7.00
2019-03-30T10:50:48.972Z,6.67
2019-03-30T10:53:18.047Z,8.50
2019-03-30T10:55:47.912Z,8.33
2019-03-30T10:58:17.593Z,10.03
2019-03-30T11:00:46.872Z,8.73
2019-03-30T11:03:16.154Z,9.33
2019-03-30T11:05:45.267Z,9.83
2019-03-30T11:08:14.448Z,8.03
2019-03-30T11:10:44.012Z,9.17
2019-03-30T11:13:13.874Z,8.40
2019-03-30T11:15:43.117Z,8.83
2019-03-30T11:18:12.406Z,9.20
2019-03-30T11:20:41.654Z,8.87
2019-03-30T11:23:10.838Z,8.10
2019-03-30T11:25:40.011Z,8.47
2019-03-30T11:28:10.349Z,8.53
2019-03-30T11:30:39.635Z,8.07
2019-03-30T11:33:08.756Z,6.97
2019-03-30T11:35:37.922Z,7.15
2019-03-30T11:38:07.628Z,7.93
2019-03-30T11:40:36.811Z,7.63
2019-03-30T11:43:06.212Z,8.00
2019-03-30T11:45:35.641Z,8.67
2019-03-30T11:48:05.034Z,7.23
2019-03-30T11:50:34.134Z,7.70
2019-03-30T11:53:03.383Z,7.70
2019-03-30T11:55:32.657Z,8.17
2019-03-30T11:58:01.930Z,7.53
2019-03-30T12:00:31.148Z,8.93
2019-03-30T12:03:01.295Z,8.83
2019-03-30T12:05:31.168Z,8.57
2019-03-30T12:08:04.844Z,8.77
2019-03-30T12:10:41.049Z,7.37
2019-03-30T12:13:10.550Z,8.30
2019-03-30T12:18:18.247Z,7.60
2019-03-30T12:20:47.466Z,8.40
2019-03-30T12:23:17.023Z,7.23
2019-03-30T12:25:46.652Z,7.80
2019-03-30T12:28:15.778Z,7.60
2019-03-30T12:30:45.731Z,6.60
2019-03-30T12:33:14.940Z,7.80
2019-03-30T12:35:44.267Z,7.20
2019-03-30T12:38:14.050Z,6.97
2019-03-30T12:40:43.110Z,7.10
2019-03-30T12:43:12.560Z,6.63
2019-03-30T12:45:45.013Z,7.57
2019-03-30T12:48:14.946Z,7.30
2019-03-30T12:50:45.040Z,7.10
2019-03-30T12:53:17.970Z,7.30
2019-03-30T12:55:49.540Z,6.63
2019-03-30T12:58:18.476Z,6.97
2019-03-30T13:00:49.060Z,6.60
2019-03-30T13:03:18.478Z,7.27
2019-03-30T13:05:47.984Z,7.53
2019-03-30T13:08:17.212Z,7.97
2019-03-30T13:10:46.773Z,7.87
2019-03-30T13:13:16.323Z,7.63
2019-03-30T13:15:45.756Z,8.20
2019-03-30T13:18:15.156Z,7.20
2019-03-30T13:20:44.585Z,7.13
2019-03-30T13:23:13.925Z,7.40
2019-03-30T13:25:43.363Z,7.30
2019-03-30T13:28:12.598Z,7.77
2019-03-30T13:30:42.037Z,7.73
2019-03-30T13:33:11.157Z,6.97
2019-03-30T13:35:40.311Z,7.70
2019-03-30T13:38:09.493Z,8.27
2019-03-30T13:40:38.679Z,7.60
2019-03-30T13:43:10.180Z,7.73
2019-03-30T13:45:39.789Z,8.40
2019-03-30T13:48:09.280Z,8.10
2019-03-30T13:50:38.441Z,8.33
2019-03-30T13:53:07.716Z,8.13
2019-03-30T13:55:37.051Z,8.23
2019-03-30T13:58:06.314Z,7.67
2019-03-30T14:00:35.590Z,8.13
2019-03-30T14:03:04.865Z,8.90
2019-03-30T14:05:34.463Z,8.57
2019-03-30T14:08:04.026Z,8.27
2019-03-30T14:10:33.488Z,8.27
2019-03-30T14:13:02.818Z,8.20
2019-03-30T14:15:31.987Z,7.67
2019-03-30T14:18:01.176Z,7.53
2019-03-30T14:20:30.352Z,9.50
2019-03-30T14:22:59.511Z,8.30
2019-03-30T14:25:28.664Z,9.00
2019-03-30T14:27:57.775Z,8.67
2019-03-30T14:30:26.884Z,8.50
2019-03-30T14:32:56.049Z,9.00
2019-03-30T14:35:25.156Z,9.30
2019-03-30T14:37:54.739Z,8.53
2019-03-30T14:40:23.995Z,8.93
2019-03-30T14:42:53.183Z,9.23
2019-03-30T14:45:39.713Z,8.80
2019-03-30T14:48:09.605Z,8.87
2019-03-30T14:50:38.714Z,9.63
2019-03-30T14:53:07.846Z,10.07
2019-03-30T14:55:39.602Z,9.60
2019-03-30T14:58:07.971Z,9.43
2019-03-30T15:00:37.716Z,8.77
2019-03-30T15:03:07.473Z,8.93
2019-03-30T15:05:36.630Z,8.20
2019-03-30T15:08:05.779Z,8.10
2019-03-30T15:10:34.927Z,8.67
2019-03-30T15:13:04.399Z,7.77
2019-03-30T15:15:33.989Z,9.03
2019-03-30T15:18:03.112Z,9.20
2019-03-30T15:20:32.571Z,8.93
2019-03-30T15:23:01.778Z,9.03
2019-03-30T15:25:31.661Z,8.77
2019-03-30T15:28:00.874Z,8.90
2019-03-30T15:30:30.048Z,8.57
2019-03-30T15:32:59.296Z,7.63
2019-03-30T15:35:28.425Z,8.50
2019-03-30T15:37:57.659Z,8.37
2019-03-30T15:40:26.710Z,7.73
2019-03-30T15:42:55.786Z,7.70
2019-03-30T15:45:24.852Z,7.97
2019-03-30T15:47:53.902Z,8.20
2019-03-30T15:50:24.059Z,8.33
2019-03-30T15:52:53.103Z,8.23
2019-03-30T15:55:22.219Z,8.23
2019-03-30T15:57:51.507Z,7.90
2019-03-30T16:00:20.590Z,8.13
2019-03-30T16:02:49.923Z,7.87
2019-03-30T16:05:19.266Z,8.37
2019-03-30T16:07:48.348Z,8.33
2019-03-30T16:10:17.702Z,7.70
2019-03-30T16:12:47.158Z,8.17
2019-03-30T16:15:16.292Z,8.30
2019-03-30T16:17:45.472Z,7.87
2019-03-30T16:20:15.058Z,9.73
2019-03-30T16:22:44.431Z,8.67
2019-03-30T16:25:13.583Z,7.60
2019-03-30T16:27:42.905Z,8.60
2019-03-30T16:30:12.727Z,9.10
2019-03-30T16:32:41.836Z,9.20
2019-03-30T16:35:11.090Z,9.30
2019-03-30T16:37:40.927Z,10.00
2019-03-30T16:40:10.509Z,10.20
2019-03-30T16:42:39.804Z,9.83
2019-03-30T16:45:09.099Z,10.30
2019-03-30T16:47:38.437Z,19.10
2019-03-30T16:50:07.703Z,12.20
2019-03-30T16:52:39.198Z,9.20
2019-03-30T16:55:08.103Z,9.63
2019-03-30T16:57:43.502Z,14.17
2019-03-30T17:00:08.330Z,10.40
2019-03-30T17:02:37.397Z,10.70
2019-03-30T17:05:07.146Z,11.07
2019-03-30T17:07:36.913Z,25.80
2019-03-30T17:10:06.745Z,16.10
2019-03-30T17:12:36.172Z,37.60
2019-03-30T17:15:05.547Z,20.20
2019-03-30T17:17:34.794Z,12.23
2019-03-30T17:20:03.963Z,11.77
2019-03-30T17:22:33.086Z,13.17
2019-03-30T17:25:02.360Z,15.67
2019-03-30T17:27:33.232Z,12.23
2019-03-30T17:30:02.375Z,11.00
2019-03-30T17:32:31.541Z,10.30
2019-03-30T17:35:00.631Z,9.60
2019-03-30T17:37:29.712Z,9.90
2019-03-30T17:39:59.073Z,9.67
2019-03-30T17:42:28.212Z,11.07
2019-03-30T17:44:57.281Z,10.60
2019-03-30T17:47:26.402Z,10.30
2019-03-30T17:49:55.515Z,10.30
2019-03-30T17:52:24.782Z,10.50
2019-03-30T17:54:53.872Z,10.30
2019-03-30T17:57:22.995Z,10.00
2019-03-30T17:59:52.591Z,9.53
2019-03-30T18:02:23.297Z,10.83
2019-03-30T18:04:52.731Z,11.37
2019-03-30T18:07:21.914Z,10.80
2019-03-30T18:09:51.229Z,10.23
2019-03-30T18:12:20.627Z,10.73
2019-03-30T18:14:50.262Z,10.50
2019-03-30T18:17:20.067Z,11.17
2019-03-30T18:19:49.373Z,10.37
2019-03-30T18:22:18.579Z,10.20
2019-03-30T18:24:47.912Z,10.23
2019-03-30T18:27:17.694Z,11.63
2019-03-30T18:29:46.855Z,11.50
2019-03-30T18:32:16.585Z,10.63
2019-03-30T18:34:46.626Z,11.43
2019-03-30T18:37:17.210Z,11.27
2019-03-30T18:39:46.675Z,11.80
2019-03-30T18:42:15.788Z,12.10
2019-03-30T18:44:45.419Z,11.97
2019-03-30T18:47:14.620Z,13.70
2019-03-30T18:49:43.803Z,16.13
2019-03-30T18:52:13.882Z,14.50
2019-03-30T18:54:43.693Z,14.53
2019-03-30T18:57:13.355Z,13.80
2019-03-30T18:59:42.643Z,13.30
2019-03-30T19:02:12.142Z,14.53
2019-03-30T19:04:41.314Z,12.77
2019-03-30T19:07:10.409Z,12.57
2019-03-30T19:09:39.649Z,13.00
2019-03-30T19:12:10.348Z,12.47
2019-03-30T19:14:41.783Z,12.80
2019-03-30T19:17:12.040Z,12.57
2019-03-30T19:19:42.170Z,13.47
2019-03-30T19:22:12.137Z,13.47
2019-03-30T19:24:41.640Z,13.07
2019-03-30T19:27:10.780Z,13.17
2019-03-30T19:29:40.288Z,14.07
2019-03-30T19:32:09.381Z,14.00
2019-03-30T19:34:38.512Z,13.77
2019-03-30T19:37:07.876Z,13.63
2019-03-30T19:39:37.259Z,14.13
2019-03-30T19:42:06.469Z,14.20
2019-03-30T19:44:35.720Z,14.57
2019-03-30T19:47:04.864Z,14.87
2019-03-30T19:49:34.056Z,14.67
2019-03-30T19:52:05.715Z,14.13
2019-03-30T19:54:34.381Z,14.33
2019-03-30T19:57:03.716Z,14.50
2019-03-30T20:02:11.534Z,14.97
2019-03-30T20:04:40.827Z,14.33
2019-03-30T20:07:10.213Z,14.60
2019-03-30T20:09:39.870Z,14.73
2019-03-30T20:12:09.434Z,13.87
2019-03-30T20:14:38.821Z,16.47
2019-03-30T20:17:08.337Z,18.60
2019-03-30T20:19:37.595Z,16.03
2019-03-30T20:22:06.864Z,16.10
2019-03-30T20:24:36.386Z,17.50
2019-03-30T20:27:05.646Z,17.10
2019-03-30T20:29:34.875Z,15.73
2019-03-30T20:32:04.342Z,17.57
2019-03-30T20:34:33.758Z,16.73
2019-03-30T20:37:02.984Z,18.20
2019-03-30T20:39:32.141Z,18.20
2019-03-30T20:42:01.335Z,18.73
2019-03-30T20:44:30.596Z,17.63
2019-03-30T20:46:59.688Z,18.97
2019-03-30T20:49:28.939Z,19.23
2019-03-30T20:51:58.592Z,18.67
2019-03-30T20:54:27.883Z,19.50
2019-03-30T20:56:57.140Z,19.37
2019-03-30T20:59:39.446Z,19.83
2019-03-30T21:02:01.448Z,19.57
2019-03-30T21:04:30.798Z,19.77
2019-03-30T21:07:00.272Z,18.40
2019-03-30T21:09:30.129Z,19.30
2019-03-30T21:11:59.523Z,18.97
2019-03-30T21:14:28.843Z,18.43
2019-03-30T21:16:58.319Z,17.97
2019-03-30T21:19:27.458Z,18.13
2019-03-30T21:21:57.150Z,19.47
2019-03-30T21:24:31.547Z,18.33
2019-03-30T21:27:01.087Z,19.10
2019-03-30T21:29:30.369Z,19.27
2019-03-30T21:31:59.927Z,19.57
2019-03-30T21:34:31.697Z,19.87
2019-03-30T21:37:23.322Z,20.03
2019-03-30T21:39:53.023Z,20.67
2019-03-30T21:42:22.360Z,22.23
2019-03-30T21:44:51.745Z,23.67
2019-03-30T21:47:21.330Z,22.70
2019-03-30T21:49:50.744Z,25.87
2019-03-30T21:52:19.942Z,25.00
2019-03-30T21:54:49.608Z,22.53
2019-03-30T21:57:18.753Z,27.93
2019-03-30T21:59:47.937Z,25.63
2019-03-30T22:02:17.103Z,26.13
2019-03-30T22:04:46.314Z,25.17
2019-03-30T22:07:16.432Z,22.57
2019-03-30T22:09:45.696Z,24.30
2019-03-30T22:12:15.205Z,27.77
2019-03-30T22:14:44.450Z,26.37
2019-03-30T22:17:13.735Z,29.40
2019-03-30T22:19:43.059Z,30.00
2019-03-30T22:22:12.366Z,30.37
2019-03-30T22:24:41.506Z,31.77
2019-03-30T22:27:10.647Z,33.57
2019-03-30T22:29:40.086Z,31.40
2019-03-30T22:32:09.397Z,31.73
2019-03-30T22:34:38.853Z,33.67
2019-03-30T22:37:08.124Z,32.07
2019-03-30T22:39:37.201Z,33.57
2019-03-30T22:42:06.458Z,32.73
2019-03-30T22:44:35.960Z,33.47
2019-03-30T22:47:05.538Z,33.73
2019-03-30T22:49:34.747Z,33.70
2019-03-30T22:52:03.861Z,36.27
2019-03-30T22:54:32.942Z,34.97
2019-03-30T22:57:02.054Z,35.20
2019-03-30T22:59:31.256Z,34.97
2019-03-30T23:02:00.718Z,36.13
2019-03-30T23:04:30.182Z,34.43
2019-03-30T23:06:59.728Z,34.57
2019-03-30T23:09:30.851Z,34.97
2019-03-30T23:12:00.969Z,35.67
2019-03-30T23:14:30.307Z,35.77
2019-03-30T23:16:59.993Z,35.90
2019-03-30T23:19:29.210Z,35.90
2019-03-30T23:21:58.425Z,35.30
2019-03-30T23:24:27.937Z,35.73
2019-03-30T23:26:57.230Z,35.87
2019-03-30T23:29:26.468Z,36.10
2019-03-30T23:31:55.608Z,37.00
2019-03-30T23:34:25.000Z,36.57
2019-03-30T23:36:54.713Z,37.03
2019-03-30T23:39:23.936Z,37.20
2019-03-30T23:41:53.221Z,35.37
2019-03-30T23:44:22.574Z,35.70
2019-03-30T23:46:51.811Z,35.80
2019-03-30T23:49:21.635Z,37.07
2019-03-30T23:51:50.917Z,38.13
2019-03-30T23:54:19.991Z,38.27
2019-03-30T23:56:49.258Z,37.40
2019-03-30T23:59:19.151Z,38.40
